Latest Weather Observations for Dennes Point

IDT60901

Issued at 5:31 pm EDT Thursday 11 February 2016 (issued every 10 minutes, with the page automatically refreshed every 10 minutes)

About weather observations | Map of Hobart area stations | Latest observations for Hobart area | Other Formats
Station Details ID: 094255 Name: DENNES POINT Lat: -43.06 Lon: 147.36 Height: 5.67 m
Data from the previous 72 hours. | See also: Recent months at Dennes Point
Date/Time
EDT
Tmp

°C
App
Tmp
°C
Dew
Point
°C
Rel
Hum
%
Delta-T

°C
Wind Press
QNH
hPa
Press
MSL
hPa
Rain
since
9 am
mm
Dir
 
Spd
km/h
Gust
km/h
Spd
kts
Gust
kts
11/05:30pm 17.6 14.0 10.5 63 3.8 ESE 20 30 11 16 1016.8 1016.7 0.0
11/05:00pm 18.4 14.0 10.5 60 4.2 ESE 24 32 13 17 1016.7 1016.6 0.0
11/04:30pm 18.1 13.6 10.0 59 4.3 ESE 24 32 13 17 1016.5 1016.4 0.0
11/04:00pm 19.0 14.9 10.0 56 4.8 ESE 22 30 12 16 1016.4 1016.3 0.0
11/03:30pm 19.9 17.0 11.1 57 4.8 SE 17 24 9 13 1016.5 1016.4 0.0
11/03:00pm 18.9 15.5 10.7 59 4.4 SE 19 35 10 19 1016.5 1016.4 0.0
11/02:30pm 19.3 15.2 11.3 60 4.4 ESE 24 35 13 19 1016.6 1016.5 0.0
11/02:00pm 19.2 15.1 11.3 60 4.3 ESE 24 32 13 17 1016.7 1016.6 0.0
11/01:30pm 19.7 16.1 11.7 60 4.4 ESE 22 28 12 15 1016.6 1016.5 0.0
11/01:00pm 19.9 16.4 12.2 61 4.3 ESE 22 28 12 15 1016.5 1016.4 0.0
11/12:30pm 20.0 16.6 10.7 55 5.1 E 19 20 10 11 1016.5 1016.4 0.0
11/12:00pm 20.2 17.3 10.9 55 5.1 ESE 17 20 9 11 1016.5 1016.4 0.0
11/11:30am 20.0 17.3 10.4 54 5.2 E 15 19 8 10 1016.5 1016.4 0.0
11/11:00am 20.3 19.1 9.5 50 5.7 ESE 6 9 3 5 1016.6 1016.5 0.0
11/10:30am 18.9 17.0 7.7 48 5.7 SW 7 15 4 8 1016.7 1016.6 0.0
11/10:00am 19.1 16.3 8.7 51 5.4 WSW 13 17 7 9 1016.8 1016.7 0.0
11/09:30am 18.9 15.6 9.4 54 5.0 SW 17 26 9 14 1016.5 1016.4 0.0
11/09:00am 18.0 16.7 10.1 60 4.2 SW 7 11 4 6 1016.4 1016.3 0.0
11/08:30am 17.4 15.8 10.3 63 3.8 W 9 13 5 7 1016.1 1016.0 0.0
11/08:00am 16.1 16.1 12.3 78 2.1 SSW 4 4 2 2 1015.8 1015.7 0.0
11/07:30am 14.9 14.8 12.0 83 1.6 SW 4 6 2 3 1015.5 1015.4 0.0
11/07:00am 14.4 14.1 11.6 83 1.5 SW 4 4 2 2 1015.2 1015.1 0.0
11/06:30am 13.4 12.5 11.3 87 1.1 SSW 7 13 4 7 1014.9 1014.8 0.0
11/06:00am 13.7 13.2 11.9 89 1.0 SSW 6 7 3 4 1014.5 1014.4 0.0
11/05:30am 13.9 13.2 11.9 88 1.1 WSW 7 9 4 5 1014.4 1014.3 0.0
11/05:00am 14.5 14.9 12.5 88 1.1 W 2 4 1 2 1013.8 1013.7 0.0
11/04:30am 13.8 13.6 11.7 87 1.1 W 4 6 2 3 1013.9 1013.8 0.0
11/04:00am 14.4 15.1 12.1 86 1.2 CALM 0 4 0 2 1013.8 1013.7 0.0
11/03:30am 14.4 14.2 11.9 85 1.3 W 4 6 2 3 1013.7 1013.6 0.0
11/03:00am 14.3 14.0 11.5 83 1.5 W 4 6 2 3 1013.9 1013.8 0.0
11/02:30am 14.3 13.4 11.5 83 1.5 SSW 7 11 4 6 1013.9 1013.8 0.0
11/02:00am 14.8 14.2 11.6 81 1.7 S 6 9 3 5 1014.0 1013.9 0.0
11/01:30am 15.0 14.3 12.1 83 1.6 SSW 7 11 4 6 1014.0 1013.9 0.0
11/01:00am 14.9 12.7 12.2 84 1.5 SSW 15 20 8 11 1013.8 1013.7 0.0
11/12:30am 15.1 12.1 12.1 82 1.6 SSW 19 24 10 13 1013.6 1013.5 0.0
11/12:00am 15.5 15.3 11.9 79 2.0 SSE 4 13 2 7 1013.5 1013.4 0.0
 
Date/Time
EDT
Tmp

°C
App
Tmp
°C
Dew
Point
°C
Rel
Hum
%
Delta-T

°C
Wind Press
QNH
hPa
Press
MSL
hPa
Rain
since
9 am
mm
Dir
 
Spd
km/h
Gust
km/h
Spd
kts
Gust
kts
10/11:30pm 15.7 13.4 11.9 78 2.1 E 15 22 8 12 1013.5 1013.4 0.0
10/11:00pm 17.0 14.7 11.9 72 2.8 SSW 15 20 8 11 1013.1 1013.0 0.0
10/10:30pm 18.9 18.0 11.5 62 4.1 SSW 7 15 4 8 1013.1 1013.0 0.0
10/10:00pm 19.1 17.9 11.7 62 4.1 W 9 13 5 7 1012.9 1012.8 0.0
10/09:30pm 19.4 17.5 11.7 61 4.2 WSW 13 17 7 9 1012.6 1012.5 0.0
10/09:00pm 19.9 17.5 11.4 58 4.7 SW 15 20 8 11 1012.2 1012.1 0.0
10/08:30pm 20.4 17.0 11.3 56 5.0 WSW 20 24 11 13 1011.8 1011.7 0.0
10/08:00pm 20.6 17.2 10.7 53 5.4 WSW 19 28 10 15 1011.6 1011.5 0.0
10/07:30pm 21.5 18.6 10.9 51 5.8 W 17 24 9 13 1011.4 1011.3 0.0
10/07:00pm 21.9 20.4 10.7 49 6.2 W 9 17 5 9 1011.2 1011.1 0.0
10/06:30pm 22.4 20.8 10.2 46 6.7 W 9 11 5 6 1011.1 1011.0 0.0
10/06:00pm 21.0 17.9 10.2 50 5.9 W 17 20 9 11 1011.1 1011.0 0.0
10/05:30pm 21.4 17.2 11.1 52 5.7 WSW 24 30 13 16 1011.0 1010.9 0.0
10/05:00pm 21.5 17.2 10.6 50 6.0 WSW 24 30 13 16 1011.0 1010.9 0.0
10/04:30pm 21.3 17.4 10.8 51 5.8 SW 22 35 12 19 1010.9 1010.8 0.0
10/04:00pm 21.6 18.1 10.1 48 6.2 WSW 19 28 10 15 1010.9 1010.8 0.0
10/03:30pm 21.4 20.2 10.3 49 6.0 S 7 17 4 9 1011.2 1011.1 0.0
10/03:00pm 20.9 19.5 12.1 57 4.9 ESE 11 15 6 8 1011.3 1011.2 0.0
10/02:30pm 20.7 19.8 11.3 55 5.2 ESE 7 11 4 6 1011.6 1011.5 0.0
10/02:00pm 20.6 19.5 12.1 58 4.8 ESE 9 13 5 7 1011.6 1011.5 0.0
10/01:30pm 20.8 19.7 10.6 52 5.6 E 7 9 4 5 1011.6 1011.5 0.0
10/01:00pm 20.6 19.5 10.7 53 5.4 E 7 9 4 5 1011.9 1011.8 0.0
10/12:30pm 21.9 20.6 11.3 51 5.9 ENE 9 13 5 7 1012.3 1012.2 0.0
10/12:00pm 21.2 20.3 11.2 53 5.5 ENE 7 9 4 5 1012.6 1012.5 0.0
10/11:30am 19.9 19.7 10.6 55 5.0 E 2 6 1 3 1013.0 1012.9 0.0
10/11:00am 18.9 18.2 9.9 56 4.8 NNW 4 7 2 4 1013.2 1013.1 0.0
10/10:30am 18.8 18.2 10.4 58 4.5 NNE 4 6 2 3 1013.2 1013.1 0.0
10/10:00am 18.3 16.7 11.4 64 3.8 N 11 13 6 7 1013.3 1013.2 0.0
10/09:30am 18.7 18.1 10.5 59 4.4 NNE 4 9 2 5 1013.4 1013.3 0.0
10/09:00am 18.1 16.6 11.9 67 3.4 N 11 13 6 7 1013.3 1013.2 0.0
10/08:30am 18.0 17.1 9.4 57 4.5 WNW 4 6 2 3 1013.3 1013.2 0.0
10/08:00am 17.4 15.8 10.1 62 3.9 WNW 9 13 5 7 1013.4 1013.3 0.0
10/07:30am 16.4 15.1 9.8 65 3.5 W 7 9 4 5 1013.2 1013.1 0.0
10/07:00am 15.2 14.1 9.8 70 2.8 WSW 6 9 3 5 1013.2 1013.1 0.0
10/06:30am 15.1 13.3 9.5 69 2.9 W 9 15 5 8 1013.2 1013.1 0.0
10/06:00am 14.7 12.9 9.3 70 2.8 SSW 9 15 5 8 1013.1 1013.0 0.0
10/05:30am 15.8 13.1 10.3 70 2.9 W 15 20 8 11 1013.1 1013.0 0.0
10/05:00am 15.7 13.2 11.1 74 2.5 W 15 17 8 9 1013.0 1012.9 0.0
10/04:30am 15.2 13.4 10.8 75 2.3 SSW 11 15 6 8 1013.0 1012.9 0.0
10/04:00am 14.9 13.4 11.9 82 1.6 SSW 11 15 6 8 1013.1 1013.0 0.0
10/03:30am 15.4 14.8 13.6 89 1.0 SW 9 13 5 7 1013.1 1013.0 0.0
10/03:00am 15.2 14.6 13.4 89 1.0 SSW 9 13 5 7 1013.1 1013.0 0.0
10/02:30am 15.2 14.6 13.4 89 1.0 SSW 9 13 5 7 1013.3 1013.2 0.0
10/02:00am 15.5 15.2 13.3 87 1.2 SSW 7 9 4 5 1013.6 1013.5 0.0
10/01:30am 15.6 15.1 12.7 83 1.6 SSW 7 9 4 5 1014.0 1013.9 0.0
10/01:00am 16.1 17.0 12.8 81 1.8 CALM 0 4 0 2 1014.3 1014.2 0.0
10/12:30am 16.3 17.3 13.2 82 1.7 CALM 0 0 0 0 1014.6 1014.5 0.0
10/12:00am 16.3 17.4 13.4 83 1.6 CALM 0 2 0 1 1014.6 1014.5 0.0
 
Date/Time
EDT
Tmp

°C
App
Tmp
°C
Dew
Point
°C
Rel
Hum
%
Delta-T

°C
Wind Press
QNH
hPa
Press
MSL
hPa
Rain
since
9 am
mm
Dir
 
Spd
km/h
Gust
km/h
Spd
kts
Gust
kts
09/11:30pm 16.0 16.1 12.6 80 1.9 N 4 4 2 2 1014.9 1014.8 0.0
09/11:00pm 15.7 15.6 12.1 79 2.0 N 4 6 2 3 1015.3 1015.2 0.0
09/10:30pm 15.8 15.3 12.0 78 2.1 N 6 7 3 4 1015.5 1015.4 0.0
09/10:00pm 16.4 17.2 12.4 77 2.2 CALM 0 0 0 0 1015.5 1015.4 0.0
09/09:30pm 17.1 18.0 12.8 76 2.4 CALM 0 4 0 2 1015.5 1015.4 0.0
09/09:00pm 17.2 16.3 12.7 75 2.5 SE 9 11 5 6 1015.6 1015.5 0.0
09/08:30pm 17.7 16.9 13.0 74 2.6 SE 9 13 5 7 1015.5 1015.4 0.0
09/08:00pm 18.6 18.0 13.5 72 2.9 SSE 9 13 5 7 1015.2 1015.1 0.0
09/07:30pm 19.1 18.2 13.7 71 3.1 SE 11 19 6 10 1015.1 1015.0 0.0
09/07:00pm 19.4 18.3 13.1 67 3.6 SSE 11 17 6 9 1015.1 1015.0 0.0
09/06:30pm 21.1 20.6 13.8 63 4.2 SSE 9 17 5 9 1015.0 1014.9 0.0
09/06:00pm 21.3 20.2 14.2 64 4.1 SW 13 17 7 9 1015.1 1015.0 0.0
09/05:30pm 23.1 22.3 14.1 57 5.3 SW 11 15 6 8 1015.2 1015.1 0.0
09/05:00pm 22.2 21.8 14.1 60 4.7 WSW 9 13 5 7 1015.6 1015.5 0.0
09/04:30pm 22.2 20.9 13.8 59 4.9 SW 13 19 7 10 1016.2 1016.1 0.0
09/04:00pm 22.0 20.8 14.1 61 4.6 ESE 13 19 7 10 1016.5 1016.4 0.0
09/03:30pm 20.8 17.8 13.7 64 4.1 ESE 22 28 12 15 1016.8 1016.7 0.0
09/03:00pm 20.6 17.0 13.1 62 4.3 ESE 24 30 13 16 1017.1 1017.0 0.0
09/02:30pm 20.7 16.8 13.2 62 4.3 ESE 26 32 14 17 1017.5 1017.4 0.0
09/02:00pm 20.6 16.9 12.8 61 4.4 ESE 24 32 13 17 1017.9 1017.8 0.0
09/01:30pm 20.7 17.0 12.7 60 4.5 ESE 24 30 13 16 1018.0 1017.9 0.0
09/01:00pm 21.0 18.1 12.2 57 4.9 ESE 19 24 10 13 1018.4 1018.3 0.0
09/12:30pm 21.3 18.5 11.3 53 5.5 ESE 17 19 9 10 1019.0 1018.9 0.0
09/12:00pm 21.1 20.3 11.7 55 5.2 ENE 7 19 4 10 1019.5 1019.4 0.0
09/11:30am 20.9 19.1 10.7 52 5.6 NE 11 13 6 7 1019.9 1019.8 0.0
09/11:00am 20.1 19.0 10.5 54 5.2 ENE 7 9 4 5 1020.2 1020.2 0.0
09/10:30am 19.8 18.6 9.7 52 5.4 E 6 7 3 4 1020.6 1020.6 0.0
09/10:00am 19.4 18.2 10.4 56 4.8 ESE 7 9 4 5 1020.9 1020.9 0.0
09/09:30am 19.1 18.5 10.4 57 4.7 E 4 6 2 3 1021.1 1021.1 0.0
09/09:00am 18.0 17.0 10.9 63 3.8 NNE 7 9 4 5 1021.2 1021.2 0.0
09/08:30am 17.9 17.7 10.5 62 4.0 NE 2 4 1 2 1021.2 1021.2 0.0
09/08:00am 16.9 16.1 11.2 69 3.1 SSW 6 7 3 4 1021.1 1021.1 0.0
09/07:30am 15.3 14.2 10.7 74 2.4 SSW 7 11 4 6 1021.1 1021.1 0.0
09/07:00am 14.7 13.4 10.1 74 2.4 WSW 7 13 4 7 1021.0 1021.0 0.0
09/06:30am 14.4 13.6 9.6 73 2.5 SSW 4 7 2 4 1020.8 1020.8 0.0
09/06:00am 15.1 14.5 10.3 73 2.5 WNW 4 6 2 3 1020.6 1020.6 0.0
09/05:30am 15.2 14.5 10.0 71 2.7 W 4 6 2 3 1020.4 1020.4 0.0
09/05:00am 15.0 13.6 9.6 70 2.8 S 7 11 4 6 1020.3 1020.3 0.0
09/04:30am 15.2 13.4 9.6 69 2.9 SSW 9 15 5 8 1020.4 1020.4 0.0
09/04:00am 16.1 14.8 9.8 66 3.3 SSW 7 9 4 5 1020.4 1020.4 0.0
09/03:30am 16.0 14.9 10.5 70 2.9 SW 7 13 4 7 1020.5 1020.5 0.0
09/03:00am 16.4 14.9 10.5 68 3.1 W 9 13 5 7 1020.4 1020.4 0.0
09/02:30am 16.1 14.9 10.4 69 3.0 W 7 11 4 6 1020.5 1020.5 0.0
09/02:00am 16.5 15.2 9.9 65 3.5 SW 7 11 4 6 1020.6 1020.6 0.0
09/01:30am 17.3 14.2 10.4 64 3.7 WSW 17 24 9 13 1020.7 1020.7 0.0
09/01:00am 17.3 14.3 10.7 65 3.5 WSW 17 20 9 11 1020.8 1020.8 0.0
09/12:30am 17.9 14.6 10.8 63 3.8 WSW 19 26 10 14 1020.9 1020.9 0.0
09/12:00am 18.2 15.2 10.8 62 4.0 W 17 22 9 12 1020.8 1020.8 0.0
 
Date/Time
EDT
Tmp

°C
App
Tmp
°C
Dew
Point
°C
Rel
Hum
%
Delta-T

°C
Wind Press
QNH
hPa
Press
MSL
hPa
Rain
since
9 am
mm
Dir
 
Spd
km/h
Gust
km/h
Spd
kts
Gust
kts
08/11:30pm 18.5 14.8 10.3 59 4.4 WSW 20 26 11 14 1020.9 1020.9 0.0
08/11:00pm 18.8 15.9 9.6 55 4.8 SW 15 20 8 11 1021.1 1021.1 0.0
08/10:30pm 18.9 15.3 9.7 55 4.9 WSW 19 24 10 13 1020.9 1020.9 0.0
08/10:00pm 18.6 15.6 9.1 54 5.0 WSW 15 19 8 10 1020.9 1020.9 0.0
08/09:30pm 19.1 15.1 9.0 52 5.3 W 20 24 11 13 1020.5 1020.5 0.0
08/09:00pm 18.9 13.9 9.7 55 4.9 WSW 26 35 14 19 1020.3 1020.3 0.0
08/08:30pm 19.4 13.3 9.6 53 5.2 WSW 32 43 17 23 1019.9 1019.8 0.0
08/08:00pm 20.1 14.0 9.9 52 5.5 WSW 32 39 17 21 1019.4 1019.3 0.0
08/07:30pm 21.0 15.6 9.6 48 6.1 WSW 28 37 15 20 1019.0 1018.9 0.0
08/07:00pm 22.0 15.5 10.5 48 6.3 WSW 35 46 19 25 1018.1 1018.0 0.0
08/06:30pm 22.9 16.2 9.7 43 7.2 WSW 35 46 19 25 1017.8 1017.7 0.0
08/06:00pm 23.7 17.1 8.6 38 8.0 WSW 33 44 18 24 1017.6 1017.5 0.0

Latest Capital City Observations: Canberra | Sydney | Melbourne | Brisbane | Adelaide | Perth | Hobart | Darwin

Other Formats:

Comma delimited format used in spreadsheet applications
http://www.bom.gov.au/fwo/IDT60901/IDT60901.94988.axf

JavaScript Object Notation format (JSON) in row-major order
http://www.bom.gov.au/fwo/IDT60901/IDT60901.94988.json